Time;durP1;ratioP1;P1;durP2;ratioP2;P2;SDS_P1;SDS_P2;PMS_P1;PMS_P2;Temp;Humidity;BMP_temperature;BMP_pressure;BME280_temperature;BME280_humidity;BME280_pressure;Samples;Min_cycle;Max_cycle;Signal;HPM_P1;HPM_P2
2021/01/13 00:00:19;;;;;;;6.93;2.03;;;;;;;0.77;85.14;100080.31;5062123;28;20205;-77
2021/01/13 00:02:45;;;;;;;5.33;2.47;;;;;;;0.78;85.29;100076.03;5072791;28;20227;-77
2021/01/13 00:05:15;;;;;;;14.80;4.57;;;;;;;0.84;85.37;100083.81;5073688;28;20284;-77
2021/01/13 00:07:42;;;;;;;7.30;3.07;;;;;;;0.93;85.16;100077.94;5072870;28;20246;-78
2021/01/13 00:10:09;;;;;;;5.57;2.37;;;;;;;0.85;85.42;100076.97;5070746;28;20200;-78
2021/01/13 00:12:36;;;;;;;8.97;2.90;;;;;;;0.72;85.54;100081.06;5070202;28;20651;-77
2021/01/13 00:15:01;;;;;;;6.50;2.43;;;;;;;0.77;85.53;100077.72;5079545;28;20212;-76
2021/01/13 00:17:28;;;;;;;7.80;3.20;;;;;;;0.69;86.07;100071.59;5082749;28;20310;-79
2021/01/13 00:19:54;;;;;;;7.43;2.77;;;;;;;0.61;85.90;100070.63;5086178;28;20196;-79
2021/01/13 00:22:21;;;;;;;8.30;3.60;;;;;;;0.63;85.84;100060.38;5089697;28;20231;-79
2021/01/13 00:24:48;;;;;;;8.43;2.60;;;;;;;0.60;86.15;100074.03;5091988;28;20203;-78
2021/01/13 00:27:14;;;;;;;10.10;2.27;;;;;;;0.60;86.44;100074.03;5065576;28;20207;-78
2021/01/13 00:29:39;;;;;;;7.50;2.33;;;;;;;0.59;85.84;100062.91;5087300;28;20204;-78
2021/01/13 00:32:05;;;;;;;12.83;2.87;;;;;;;0.58;86.67;100076.56;5068620;28;20221;-77
2021/01/13 00:34:31;;;;;;;10.93;3.47;;;;;;;0.61;86.17;100078.31;5097213;28;20218;-78
2021/01/13 00:36:57;;;;;;;7.53;2.30;;;;;;;0.71;85.97;100076.75;5065636;28;20351;-78
2021/01/13 00:39:24;;;;;;;10.97;2.57;;;;;;;0.68;86.62;100067.31;5083483;28;20219;-77
2021/01/13 00:41:51;;;;;;;5.60;2.20;;;;;;;0.68;86.87;100072.44;5067506;28;20257;-77
2021/01/13 00:44:17;;;;;;;8.90;2.10;;;;;;;0.73;86.17;100065.69;5072348;28;20197;-78
2021/01/13 00:46:45;;;;;;;6.47;2.07;;;;;;;0.77;85.77;100074.28;5072995;28;20199;-78
2021/01/13 00:49:11;;;;;;;5.40;1.90;;;;;;;0.77;85.64;100075.16;5058336;28;20280;-78
2021/01/13 00:51:39;;;;;;;5.63;2.50;;;;;;;0.81;85.91;100075.19;5063277;28;20201;-77
2021/01/13 00:54:05;;;;;;;7.10;2.60;;;;;;;0.75;86.03;100078.53;5067811;28;20208;-77
2021/01/13 00:56:32;;;;;;;6.00;2.63;;;;;;;0.70;86.75;100065.63;5064314;28;20201;-77
2021/01/13 00:58:59;;;;;;;10.63;2.60;;;;;;;0.70;86.70;100070.75;5065462;28;20224;-77
2021/01/13 01:01:26;;;;;;;8.83;3.17;;;;;;;0.73;86.32;100075.06;5066043;28;20211;-78
2021/01/13 01:03:53;;;;;;;10.20;2.90;;;;;;;0.73;86.31;100075.06;5068039;28;20586;-78
2021/01/13 01:06:19;;;;;;;11.03;2.87;;;;;;;0.73;86.12;100072.50;5067978;28;20199;-77
2021/01/13 01:08:45;;;;;;;5.17;2.43;;;;;;;0.76;86.41;100073.41;5065330;28;20204;-78
2021/01/13 01:11:14;;;;;;;6.67;3.00;;;;;;;0.75;86.53;100078.53;5068755;28;20283;-77
2021/01/13 01:13:39;;;;;;;8.20;2.80;;;;;;;0.75;86.05;100066.56;5070908;28;20703;-77
2021/01/13 01:16:06;;;;;;;5.53;2.00;;;;;;;0.76;86.47;100070.00;5062547;28;20201;-77
2021/01/13 01:18:32;;;;;;;9.33;2.40;;;;;;;0.77;86.21;100076.84;5066841;28;20233;-78
2021/01/13 01:20:58;;;;;;;7.13;2.10;;;;;;;0.71;86.55;100087.03;5060896;28;20273;-78
2021/01/13 01:23:24;;;;;;;4.10;1.77;;;;;;;0.74;86.82;100082.81;5068615;28;20696;-77
2021/01/13 01:25:49;;;;;;;6.83;3.23;;;;;;;0.71;87.96;100095.59;5066418;28;20677;-77
2021/01/13 01:28:15;;;;;;;6.70;2.10;;;;;;;0.70;87.34;100093.88;5075044;28;20725;-77
2021/01/13 01:30:41;;;;;;;8.10;2.40;;;;;;;0.63;87.36;100091.19;5061636;28;20654;-78
2021/01/13 01:33:08;;;;;;;5.60;2.00;;;;;;;0.63;87.64;100104.03;5070709;28;20702;-78
2021/01/13 01:35:34;;;;;;;5.10;2.20;;;;;;;0.69;86.77;100111.84;5063835;28;20659;-78
2021/01/13 01:37:59;;;;;;;4.07;2.40;;;;;;;0.68;86.53;100103.28;5068223;28;20235;-78
2021/01/13 01:40:25;;;;;;;4.97;2.13;;;;;;;0.76;86.20;100105.97;5076832;28;20199;-78
2021/01/13 01:42:53;;;;;;;6.57;2.37;;;;;;;0.68;86.89;100115.25;5063465;28;20238;-77
2021/01/13 01:45:20;;;;;;;6.00;2.67;;;;;;;0.71;86.11;100116.16;5069708;28;20287;-77
2021/01/13 01:48:13;;;;;;;8.23;3.00;;;;;;;0.78;86.04;100117.13;5066272;28;20675;-77
2021/01/13 01:50:40;;;;;;;4.97;2.80;;;;;;;0.87;85.94;100134.38;5063398;28;20208;-77
2021/01/13 01:53:14;;;;;;;7.03;3.03;;;;;;;0.80;86.33;100120.56;5071706;28;20281;-77
2021/01/13 01:55:49;;;;;;;9.10;3.10;;;;;;;0.83;86.27;100118.03;5065918;28;20233;-77
2021/01/13 01:58:24;;;;;;;6.53;3.00;;;;;;;0.88;85.88;100116.41;5073453;28;20229;-77
2021/01/13 02:00:54;;;;;;;11.27;4.17;;;;;;;0.89;86.05;100114.72;5067671;28;20203;-77
2021/01/13 02:03:23;;;;;;;8.03;4.00;;;;;;;0.87;86.03;100112.09;5072824;28;20219;-77
2021/01/13 02:05:54;;;;;;;6.63;2.90;;;;;;;0.90;85.41;100109.59;5064201;28;20219;-77
2021/01/13 02:08:21;;;;;;;4.57;2.27;;;;;;;0.82;86.13;100111.19;5069967;28;20196;-77
2021/01/13 02:10:47;;;;;;;7.17;2.40;;;;;;;0.78;86.19;100111.97;5069608;28;20692;-77
2021/01/13 02:13:14;;;;;;;7.63;2.67;;;;;;;0.78;86.11;100114.56;5072920;28;20228;-77
2021/01/13 02:15:39;;;;;;;6.90;3.70;;;;;;;0.82;85.73;100112.91;5068498;28;20201;-77
2021/01/13 02:18:10;;;;;;;6.57;3.77;;;;;;;0.77;85.73;100113.69;5069986;28;20616;-77
2021/01/13 02:20:39;;;;;;;5.07;2.60;;;;;;;0.81;85.85;100108.59;5070034;28;20197;-77
2021/01/13 02:23:06;;;;;;;6.23;2.73;;;;;;;0.74;85.68;100117.91;5070860;28;20687;-77
2021/01/13 02:26:05;;;;;;;7.27;2.10;;;;;;;0.63;86.40;100112.59;5071726;28;20324;-77
2021/01/13 02:28:39;;;;;;;11.50;3.13;;;;;;;0.68;86.00;100121.25;5077423;28;20206;-78
2021/01/13 02:31:45;;;;;;;7.33;2.00;;;;;;;0.64;86.07;100111.78;5073804;28;20197;-77
2021/01/13 02:34:29;;;;;;;5.97;2.17;;;;;;;0.54;86.24;100115.03;5053854;28;20193;-77
2021/01/13 02:37:31;;;;;;;3.93;1.60;;;;;;;0.60;85.65;100112.56;5065888;28;20257;-77
2021/01/13 02:39:57;;;;;;;6.23;2.20;;;;;;;0.60;85.73;100115.13;5069792;28;20216;-77
2021/01/13 02:42:28;;;;;;;8.47;2.00;;;;;;;0.57;86.05;100103.09;5074691;28;20216;-78
2021/01/13 02:45:08;;;;;;;7.57;1.83;;;;;;;0.63;85.63;100093.75;5083793;28;20217;-77
2021/01/13 02:47:52;;;;;;;6.03;2.37;;;;;;;0.62;85.33;100102.31;5067920;28;20241;-77
2021/01/13 02:50:24;;;;;;;20.03;2.37;;;;;;;0.65;85.36;100100.63;5069650;28;20208;-77
2021/01/13 02:53:22;;;;;;;4.63;2.10;;;;;;;0.69;85.82;100099.84;5077473;28;20237;-77
2021/01/13 02:56:16;;;;;;;12.43;2.73;;;;;;;0.75;85.51;100101.66;5074346;28;20201;-77
2021/01/13 02:58:42;;;;;;;5.97;2.83;;;;;;;0.69;86.00;100101.56;5078922;28;20220;-78
2021/01/13 03:01:09;;;;;;;7.57;2.00;;;;;;;0.71;85.74;100090.47;5069369;28;20659;-77
2021/01/13 03:03:37;;;;;;;7.60;2.90;;;;;;;0.66;85.34;100101.53;5080466;28;20224;-77
2021/01/13 03:06:06;;;;;;;8.97;2.70;;;;;;;0.69;85.65;100107.56;5069970;28;20697;-77
2021/01/13 03:08:43;;;;;;;5.77;2.37;;;;;;;0.70;85.89;100093.03;5074201;28;20207;-77
2021/01/13 03:11:13;;;;;;;5.27;2.63;;;;;;;0.68;85.16;100093.00;5084550;28;20227;-77
2021/01/13 03:13:44;;;;;;;4.43;2.27;;;;;;;0.72;85.61;100102.47;5083140;28;20224;-77
2021/01/13 03:16:12;;;;;;;4.07;2.23;;;;;;;0.76;85.63;100108.53;5073190;28;20216;-77
2021/01/13 03:18:51;;;;;;;6.43;1.83;;;;;;;0.71;85.73;100112.72;5071940;28;20227;-80
2021/01/13 03:21:22;;;;;;;7.20;2.63;;;;;;;0.70;84.83;100095.59;5053633;28;20201;-78
2021/01/13 03:23:54;;;;;;;4.47;2.70;;;;;;;0.73;84.97;100101.66;5062095;28;20745;-79
2021/01/13 03:26:27;;;;;;;6.57;2.43;;;;;;;0.75;85.41;100099.97;5056515;28;20203;-78
2021/01/13 03:28:54;;;;;;;6.37;2.77;;;;;;;0.77;85.23;100098.28;5055323;28;20200;-77
2021/01/13 03:31:26;;;;;;;5.60;2.67;;;;;;;0.77;85.92;100100.84;5051778;28;20203;-78
2021/01/13 03:34:22;;;;;;;10.20;4.07;;;;;;;0.78;86.08;100096.56;5053623;28;20232;-78
2021/01/13 03:36:57;;;;;;;5.47;3.17;;;;;;;0.73;86.45;100093.94;5053604;28;20204;-79
2021/01/13 03:39:24;;;;;;;5.80;2.83;;;;;;;0.79;86.85;100095.72;5063960;28;20558;-77
2021/01/13 03:42:04;;;;;;;7.13;3.47;;;;;;;0.76;86.18;100095.69;5055253;28;20231;-77
2021/01/13 03:44:33;;;;;;;8.10;2.73;;;;;;;0.79;86.23;100100.84;5060203;28;20200;-76
2021/01/13 03:47:32;;;;;;;7.20;3.10;;;;;;;0.88;85.22;100097.56;5063080;28;20258;-77
2021/01/13 03:50:10;;;;;;;7.07;2.23;;;;;;;0.93;85.29;100095.91;5055492;28;20205;-76
2021/01/13 03:52:40;;;;;;;6.30;3.27;;;;;;;0.95;84.80;100112.22;5061718;28;20258;-77
2021/01/13 03:55:07;;;;;;;6.23;2.13;;;;;;;0.92;84.94;100094.22;5082459;28;20561;-76
2021/01/13 03:58:01;;;;;;;4.87;2.73;;;;;;;0.95;84.77;100094.22;5085019;28;20230;-76
2021/01/13 04:00:29;;;;;;;8.80;2.50;;;;;;;0.98;84.61;100107.13;5077927;28;20209;-78
2021/01/13 04:03:12;;;;;;;11.00;2.73;;;;;;;1.03;84.03;100095.25;5079757;28;20269;-78
2021/01/13 04:05:42;;;;;;;6.90;2.40;;;;;;;0.99;84.14;100096.00;5081771;28;20200;-78
2021/01/13 04:08:11;;;;;;;7.03;2.73;;;;;;;0.95;84.39;100094.22;5078045;28;20196;-78
2021/01/13 04:10:37;;;;;;;6.17;2.73;;;;;;;0.99;83.96;100096.00;5080879;28;20223;-79
2021/01/13 04:13:16;;;;;;;5.63;2.30;;;;;;;0.97;84.29;100084.84;5082237;28;20289;-78
2021/01/13 04:15:42;;;;;;;7.77;2.67;;;;;;;0.98;84.10;100084.00;5083507;28;20818;-78
2021/01/13 04:18:11;;;;;;;8.13;2.57;;;;;;;0.99;84.62;100096.91;5079361;28;20224;-78
2021/01/13 04:20:37;;;;;;;5.43;2.60;;;;;;;1.04;84.06;100088.38;5084255;28;20619;-78
2021/01/13 04:23:05;;;;;;;6.63;2.60;;;;;;;1.06;84.02;100082.41;5084223;28;20223;-77
2021/01/13 04:25:31;;;;;;;9.30;3.07;;;;;;;1.07;84.73;100081.59;5084345;28;20200;-78
2021/01/13 04:27:57;;;;;;;6.20;2.03;;;;;;;1.13;84.17;100085.91;5085209;28;20207;-78
2021/01/13 04:30:26;;;;;;;5.43;2.57;;;;;;;1.14;84.28;100091.09;5086193;28;20203;-79
2021/01/13 04:32:54;;;;;;;10.80;3.00;;;;;;;1.03;85.02;100099.47;5089237;28;20234;-79
2021/01/13 04:35:22;;;;;;;8.37;3.00;;;;;;;0.92;85.69;100096.78;5090752;28;20274;-79
2021/01/13 04:37:52;;;;;;;7.77;2.73;;;;;;;0.84;87.14;100095.81;5085206;28;20286;-80
2021/01/13 04:40:31;;;;;;;10.23;2.67;;;;;;;0.67;87.91;100098.97;5085146;28;20200;-79
2021/01/13 04:43:01;;;;;;;9.40;2.93;;;;;;;0.73;88.12;100100.75;5080659;28;20653;-79
2021/01/13 04:45:38;;;;;;;7.70;3.03;;;;;;;0.73;88.78;100103.34;5083119;28;20201;-79
2021/01/13 04:48:06;;;;;;;5.60;2.57;;;;;;;0.66;89.20;100084.41;5084857;28;20260;-79
2021/01/13 04:50:36;;;;;;;6.70;2.20;;;;;;;0.72;88.99;100086.22;5084204;28;20219;-79
2021/01/13 04:53:08;;;;;;;10.60;3.20;;;;;;;0.71;88.90;100085.31;5085160;28;20240;-79
2021/01/13 04:55:44;;;;;;;8.40;2.87;;;;;;;0.72;88.62;100081.94;5081746;28;20196;-79
2021/01/13 04:58:53;;;;;;;11.20;2.97;;;;;;;0.75;88.13;100076.84;5082035;28;20698;-79
2021/01/13 05:01:43;;;;;;;9.80;3.07;;;;;;;0.77;87.76;100064.00;5084006;28;20680;-79
2021/01/13 05:04:34;;;;;;;11.93;3.43;;;;;;;0.80;88.33;100066.63;5085230;28;20201;-78
2021/01/13 05:07:12;;;;;;;6.40;3.00;;;;;;;0.79;88.20;100062.31;5061402;28;20208;-78
2021/01/13 05:09:49;;;;;;;8.87;4.47;;;;;;;0.81;88.18;100059.78;5077430;28;20249;-78
2021/01/13 05:12:16;;;;;;;6.10;4.03;;;;;;;0.73;87.95;100054.53;5076213;28;20223;-78
2021/01/13 05:14:45;;;;;;;11.23;5.00;;;;;;;0.74;88.67;100048.56;5084724;28;20192;-77
2021/01/13 05:17:26;;;;;;;7.63;4.13;;;;;;;0.75;89.15;100050.28;5069182;28;20212;-77
2021/01/13 05:20:17;;;;;;;9.33;4.83;;;;;;;0.72;88.96;100045.97;5082348;28;20220;-77
2021/01/13 05:22:45;;;;;;;7.37;4.40;;;;;;;0.77;88.97;100056.28;5068373;28;20220;-77
2021/01/13 05:25:12;;;;;;;10.97;3.77;;;;;;;0.72;88.39;100047.69;5081592;28;20197;-78
2021/01/13 05:30:44;;;;;;;15.77;4.93;;;;;;;0.72;88.49;100045.09;5069465;28;20212;-79
2021/01/13 05:33:16;;;;;;;5.83;3.60;;;;;;;0.72;89.09;100047.69;5077740;28;20225;-78
2021/01/13 05:35:45;;;;;;;5.27;3.90;;;;;;;0.77;88.45;100056.28;5078609;28;20201;-78
2021/01/13 05:38:23;;;;;;;9.97;4.00;;;;;;;0.83;88.91;100056.38;5075301;28;20229;-78
2021/01/13 05:40:52;;;;;;;11.97;3.13;;;;;;;0.86;87.75;100041.03;5082556;28;20206;-80
2021/01/13 05:43:20;;;;;;;8.97;2.97;;;;;;;0.89;87.39;100035.06;5086668;28;20224;-79
2021/01/13 05:45:46;;;;;;;6.57;3.40;;;;;;;0.85;88.01;100041.00;5079343;28;20205;-78
2021/01/13 05:48:22;;;;;;;8.47;3.80;;;;;;;0.87;86.98;100034.16;5079927;28;20195;-78
2021/01/13 05:50:52;;;;;;;10.33;3.37;;;;;;;0.92;87.64;100035.97;5079767;28;20557;-78
2021/01/13 05:53:20;;;;;;;5.97;3.53;;;;;;;0.92;87.33;100024.81;5085824;22;20249;-77
2021/01/13 05:55:51;;;;;;;6.10;3.27;;;;;;;0.96;86.35;100032.59;5048382;28;20246;-78
2021/01/13 05:58:27;;;;;;;6.33;2.87;;;;;;;1.03;86.76;100027.53;5042862;28;20728;-79
2021/01/13 06:00:56;;;;;;;4.70;3.23;;;;;;;1.01;86.42;100035.22;5051363;28;20208;-79
2021/01/13 06:03:25;;;;;;;9.40;3.83;;;;;;;1.04;86.49;100034.41;5054260;28;20225;-79
2021/01/13 06:05:53;;;;;;;14.53;3.80;;;;;;;1.04;86.15;100029.28;5045176;28;20202;-79
2021/01/13 06:08:25;;;;;;;8.77;2.97;;;;;;;1.01;86.02;100030.06;5044716;28;20225;-79
2021/01/13 06:10:56;;;;;;;8.33;3.13;;;;;;;1.01;86.57;100035.22;5050938;28;20207;-78
2021/01/13 06:13:28;;;;;;;9.27;3.00;;;;;;;1.06;86.19;100025.00;5046597;28;20278;-81
2021/01/13 06:15:58;;;;;;;6.23;3.03;;;;;;;1.05;86.23;100039.56;5053196;28;20202;-78
2021/01/13 06:18:25;;;;;;;8.00;2.33;;;;;;;1.08;85.76;100031.03;5043455;28;20284;-78
2021/01/13 06:20:55;;;;;;;4.90;2.70;;;;;;;1.08;86.73;100037.03;5035915;28;20213;-79
2021/01/13 06:23:22;;;;;;;6.57;3.43;;;;;;;1.06;86.04;100035.28;5045095;28;20248;-80
2021/01/13 06:25:53;;;;;;;10.40;3.27;;;;;;;0.96;86.81;100024.88;5052989;28;20205;-79
2021/01/13 06:28:24;;;;;;;6.50;3.13;;;;;;;0.94;87.18;100039.41;5053691;28;20216;-79
2021/01/13 06:31:03;;;;;;;9.37;3.43;;;;;;;0.87;87.48;100031.59;5047076;28;20296;-79
2021/01/13 06:33:34;;;;;;;7.73;3.57;;;;;;;0.88;88.19;100021.34;5037563;28;20221;-79
2021/01/13 06:36:29;;;;;;;7.23;2.80;;;;;;;0.91;87.87;100025.66;5052288;28;20300;-78
2021/01/13 06:38:58;;;;;;;4.17;2.60;;;;;;;0.95;87.65;100025.75;5012817;28;20232;-79
2021/01/13 06:41:24;;;;;;;6.50;3.10;;;;;;;0.94;87.29;100026.56;5054024;28;20200;-80
2021/01/13 06:44:01;;;;;;;6.70;2.97;;;;;;;0.96;87.65;100036.88;5049717;28;20231;-80
2021/01/13 06:46:28;;;;;;;8.67;2.60;;;;;;;0.95;87.42;100030.88;5054863;28;20215;-79
2021/01/13 06:48:55;;;;;;;5.77;3.10;;;;;;;0.91;88.56;100036.81;5050662;28;20670;-80
2021/01/13 06:51:23;;;;;;;10.70;3.23;;;;;;;0.89;88.30;100037.63;5047317;28;20204;-80
2021/01/13 06:53:49;;;;;;;5.53;3.50;;;;;;;0.94;88.93;100033.41;5045379;28;20241;-80
2021/01/13 06:56:17;;;;;;;8.00;2.87;;;;;;;0.95;88.37;100043.72;5055552;28;20204;-80
2021/01/13 06:58:56;;;;;;;10.20;3.30;;;;;;;0.98;88.44;100045.47;5054328;28;20235;-78
2021/01/13 07:01:23;;;;;;;7.53;3.20;;;;;;;1.06;87.13;100035.28;5044907;28;20222;-78
2021/01/13 07:03:57;;;;;;;6.53;3.20;;;;;;;1.10;86.81;100037.91;5046850;28;20767;-79
2021/01/13 07:06:23;;;;;;;4.80;2.80;;;;;;;1.15;86.78;100035.38;5048765;28;20192;-77
2021/01/13 07:08:49;;;;;;;8.73;3.10;;;;;;;1.18;86.60;100041.44;5048338;28;20202;-80
2021/01/13 07:11:15;;;;;;;6.97;4.00;;;;;;;1.09;87.27;100035.31;5055009;28;20205;-78
2021/01/13 07:13:48;;;;;;;9.63;3.50;;;;;;;1.10;87.24;100040.47;5055066;28;20221;-80
2021/01/13 07:16:15;;;;;;;7.73;3.77;;;;;;;1.18;86.64;100048.28;5055760;28;20212;-79
2021/01/13 07:18:41;;;;;;;9.43;4.20;;;;;;;1.14;87.52;100038.81;5043827;28;20229;-80
2021/01/13 07:21:09;;;;;;;13.07;4.00;;;;;;;1.12;87.39;100037.94;5053993;28;20686;-81
2021/01/13 07:23:36;;;;;;;7.60;4.13;;;;;;;1.08;87.40;100037.03;5047254;28;20592;-78
2021/01/13 07:26:02;;;;;;;6.00;3.17;;;;;;;1.07;88.14;100037.00;5054941;28;20197;-81
2021/01/13 07:28:31;;;;;;;7.03;3.83;;;;;;;1.10;87.81;100035.34;5051276;28;20602;-79
2021/01/13 07:30:58;;;;;;;6.40;4.00;;;;;;;1.09;88.43;100037.88;5045696;28;20710;-81
2021/01/13 07:33:31;;;;;;;6.13;3.73;;;;;;;1.07;88.00;100035.31;5044517;28;20251;-78
2021/01/13 07:35:59;;;;;;;6.80;3.93;;;;;;;1.06;88.65;100036.16;5044800;28;20212;-80
2021/01/13 07:38:30;;;;;;;7.23;4.80;;;;;;;1.08;88.50;100044.75;5043841;28;20231;-79
2021/01/13 07:40:58;;;;;;;6.77;4.50;;;;;;;1.10;87.97;100048.19;5051735;28;20662;-79
2021/01/13 07:44:02;;;;;;;4.93;4.00;;;;;;;1.12;87.70;100045.66;5053892;28;20269;-79
2021/01/13 07:46:30;;;;;;;7.07;4.27;;;;;;;1.15;87.85;100051.69;5047561;28;20204;-83
2021/01/13 07:49:17;;;;;;;6.80;4.23;;;;;;;1.17;87.85;100054.28;5067444;28;20203;-81
2021/01/13 07:51:48;;;;;;;6.50;4.40;;;;;;;1.16;88.47;100048.28;5060625;28;20198;-81
2021/01/13 07:54:28;;;;;;;6.87;4.07;;;;;;;1.12;87.74;100054.22;5066915;28;20240;-80
2021/01/13 07:56:57;;;;;;;7.93;4.80;;;;;;;1.10;88.01;100057.63;5067459;28;20594;-81
2021/01/13 07:59:34;;;;;;;5.83;4.13;;;;;;;1.11;88.66;100064.47;5059635;28;20228;-81
2021/01/13 08:02:48;;;;;;;8.17;4.50;;;;;;;1.13;88.38;100067.91;5068130;28;20689;-84
2021/01/13 08:05:57;;;;;;;7.47;4.83;;;;;;;1.23;87.85;100061.19;5070736;28;20709;-82
2021/01/13 08:08:24;;;;;;;6.83;4.47;;;;;;;1.19;87.27;100058.59;5063803;28;20613;-82
2021/01/13 08:10:51;;;;;;;6.57;4.10;;;;;;;1.22;87.94;100059.50;5059087;28;20200;-83
2021/01/13 08:13:40;;;;;;;6.30;4.47;;;;;;;1.24;87.76;100065.50;5056570;28;20700;-82
2021/01/13 08:16:18;;;;;;;13.80;3.97;;;;;;;1.30;87.41;100056.16;5062388;28;20200;-83
2021/01/13 08:19:15;;;;;;;4.83;4.40;;;;;;;1.26;88.06;100066.41;5057380;28;20698;-80
2021/01/13 08:21:48;;;;;;;7.63;5.27;;;;;;;1.27;87.51;100065.53;5062638;28;20678;-80
2021/01/13 08:24:19;;;;;;;5.47;4.97;;;;;;;1.27;87.71;100063.84;5064302;28;20224;-80
2021/01/13 08:26:45;;;;;;;5.70;5.03;;;;;;;1.32;87.65;100053.59;5066775;28;20213;-82
2021/01/13 08:29:18;;;;;;;6.20;4.37;;;;;;;1.35;87.30;100056.22;5059333;28;20204;-85
2021/01/13 08:31:49;;;;;;;6.20;4.33;;;;;;;1.41;87.27;100056.31;5062233;28;20205;-82
2021/01/13 08:34:17;;;;;;;7.17;4.23;;;;;;;1.42;86.60;100060.59;5061415;28;20223;-83
2021/01/13 08:36:52;;;;;;;8.07;4.07;;;;;;;1.45;87.24;100050.34;5064247;28;20231;-82
2021/01/13 08:39:26;;;;;;;6.73;4.57;;;;;;;1.47;86.58;100061.50;5060191;28;20593;-80
2021/01/13 08:41:52;;;;;;;12.93;4.43;;;;;;;1.47;86.50;100033.22;5062646;28;20678;-79
2021/01/13 08:44:19;;;;;;;6.70;4.33;;;;;;;1.52;86.47;100046.13;5068340;28;20601;-80
2021/01/13 08:46:50;;;;;;;5.77;3.87;;;;;;;1.48;86.31;100050.38;5069955;28;20292;-79
2021/01/13 08:49:25;;;;;;;7.03;3.10;;;;;;;1.51;85.82;100044.41;5064115;28;20196;-86
2021/01/13 08:52:18;;;;;;;4.60;3.70;;;;;;;1.55;86.49;100043.59;5065683;28;20216;-85
2021/01/13 08:54:46;;;;;;;4.87;3.97;;;;;;;1.58;85.91;100049.63;5059821;22;20328;-83
2021/01/13 08:57:13;;;;;;;3.67;2.90;;;;;;;1.56;86.24;100047.88;5053986;28;20209;-82
2021/01/13 08:59:42;;;;;;;5.20;3.33;;;;;;;1.52;86.53;100053.84;5054667;28;20316;-82
2021/01/13 09:02:11;;;;;;;4.23;3.70;;;;;;;1.53;87.18;100061.59;5052983;28;20198;-85
2021/01/13 09:04:50;;;;;;;5.13;3.90;;;;;;;1.52;87.41;100062.41;5057240;28;20709;-83
2021/01/13 09:07:19;;;;;;;4.53;3.10;;;;;;;1.55;87.03;100066.75;5068239;28;20562;-83
2021/01/13 09:09:55;;;;;;;4.30;3.67;;;;;;;1.52;87.47;100065.00;5069311;28;20713;-81
2021/01/13 09:12:36;;;;;;;6.40;4.00;;;;;;;1.64;87.45;100063.41;5061176;28;20602;-84
2021/01/13 09:15:18;;;;;;;2.77;2.53;;;;;;;1.65;86.67;100060.00;5063627;28;20225;-84
2021/01/13 09:17:50;;;;;;;5.47;3.20;;;;;;;1.67;87.04;100066.88;5066267;28;20570;-85
2021/01/13 09:20:22;;;;;;;5.87;3.53;;;;;;;1.65;86.44;100055.72;5065602;28;20317;-84
2021/01/13 09:22:51;;;;;;;4.57;2.63;;;;;;;1.64;86.48;100056.56;5066888;28;20696;-85
2021/01/13 09:25:18;;;;;;;8.47;3.40;;;;;;;1.65;86.45;100060.00;5063766;28;20231;-80
2021/01/13 09:27:47;;;;;;;8.10;3.57;;;;;;;1.70;86.97;100056.63;5065622;28;20214;-83
2021/01/13 09:30:36;;;;;;;3.73;3.43;;;;;;;1.77;86.89;100061.00;5065411;28;20192;-83
2021/01/13 09:33:05;;;;;;;5.60;3.53;;;;;;;1.74;86.00;100050.66;5079533;28;20212;-84
2021/01/13 09:35:33;;;;;;;3.60;3.10;;;;;;;1.73;86.62;100054.09;5064006;28;20201;-83
2021/01/13 09:38:02;;;;;;;3.73;3.00;;;;;;;1.76;86.82;100046.41;5066936;28;20638;-84
2021/01/13 09:40:51;;;;;;;3.37;3.10;;;;;;;1.72;87.43;100047.19;5053243;28;20624;-84
2021/01/13 09:43:25;;;;;;;5.77;3.43;;;;;;;1.69;86.93;100049.75;5054369;28;20236;-86
2021/01/13 09:45:51;;;;;;;5.67;3.13;;;;;;;1.73;87.79;100048.09;5065575;28;20212;-86
2021/01/13 09:48:18;;;;;;;4.63;3.07;;;;;;;1.69;87.54;100044.63;5057279;28;20220;-82
2021/01/13 09:50:45;;;;;;;6.03;3.90;;;;;;;1.73;87.98;100055.81;5059682;28;20201;-83
2021/01/13 09:53:12;;;;;;;3.03;2.63;;;;;;;1.66;87.69;100065.16;5063526;28;20205;-83
2021/01/13 09:55:38;;;;;;;4.60;3.17;;;;;;;1.63;87.93;100041.97;5058051;28;20201;-83
2021/01/13 09:58:15;;;;;;;3.97;3.57;;;;;;;1.67;88.48;100048.88;5048922;28;20205;-83
2021/01/13 10:00:42;;;;;;;3.17;2.90;;;;;;;1.70;87.67;100063.47;5062038;28;20193;-80
2021/01/13 10:03:11;;;;;;;10.53;2.90;;;;;;;1.80;87.40;100044.72;5075561;28;20231;-79
2021/01/13 10:05:37;;;;;;;4.60;2.97;;;;;;;1.88;87.17;100040.50;5062781;28;20551;-81
2021/01/13 10:08:06;;;;;;;4.73;2.60;;;;;;;2.05;87.12;100044.97;5063607;28;20205;-81
2021/01/13 10:10:33;;;;;;;4.97;3.13;;;;;;;2.03;86.53;100036.38;5064517;28;20200;-81
2021/01/13 10:12:59;;;;;;;6.20;3.50;;;;;;;2.03;86.44;100039.81;5058459;28;20236;-83
2021/01/13 10:15:26;;;;;;;2.77;2.50;;;;;;;2.08;85.69;100033.00;5059261;28;20197;-79
2021/01/13 10:17:53;;;;;;;4.37;2.50;;;;;;;2.13;86.10;100031.31;5068102;28;20213;-81
2021/01/13 10:20:21;;;;;;;4.40;2.70;;;;;;;2.14;85.74;100029.59;5072506;28;20217;-83
2021/01/13 10:22:48;;;;;;;5.07;3.33;;;;;;;2.18;85.00;100031.34;5075057;28;20204;-83
2021/01/13 10:25:26;;;;;;;10.17;3.07;;;;;;;2.09;85.10;100029.56;5073333;28;20223;-83
2021/01/13 10:27:52;;;;;;;4.60;2.47;;;;;;;2.13;85.44;100021.00;5072918;28;20205;-82
2021/01/13 10:30:19;;;;;;;5.57;3.63;;;;;;;2.12;85.74;100020.97;5074910;28;20222;-80
2021/01/13 10:32:50;;;;;;;4.40;3.37;;;;;;;2.16;84.85;100015.00;5074701;28;20209;-82
2021/01/13 10:35:19;;;;;;;4.07;3.37;;;;;;;2.20;84.20;100024.50;5072549;28;20217;-80
2021/01/13 10:37:51;;;;;;;3.87;3.30;;;;;;;2.16;85.10;100028.78;5080041;28;20763;-79
2021/01/13 10:40:19;;;;;;;8.27;3.10;;;;;;;2.18;85.16;99983.28;5070520;28;20551;-80
2021/01/13 10:42:49;;;;;;;4.67;2.80;;;;;;;2.22;85.00;100015.09;5062723;28;20228;-85
2021/01/13 10:45:17;;;;;;;11.30;3.40;;;;;;;2.30;85.21;100008.28;5070707;28;20225;-83
2021/01/13 10:47:53;;;;;;;3.20;2.83;;;;;;;2.41;84.52;100013.50;5063356;28;20205;-83
2021/01/13 10:50:22;;;;;;;3.07;2.53;;;;;;;2.41;84.67;100008.34;5058785;28;20265;-81
2021/01/13 10:52:53;;;;;;;5.10;2.50;;;;;;;2.39;84.59;100010.06;5069812;28;20201;-84
2021/01/13 10:55:25;;;;;;;3.40;3.10;;;;;;;2.41;84.47;100020.38;5063825;28;20220;-83
2021/01/13 10:57:53;;;;;;;5.17;2.50;;;;;;;2.34;84.08;100007.44;5064045;28;20198;-83
2021/01/13 11:00:23;;;;;;;5.60;3.30;;;;;;;2.30;83.86;100013.44;5064650;28;20227;-83
2021/01/13 11:02:54;;;;;;;5.00;3.00;;;;;;;2.30;83.74;100012.53;5070689;28;20222;-85
2021/01/13 11:05:21;;;;;;;4.30;2.60;;;;;;;2.30;83.57;100004.81;5059893;28;20212;-87
2021/01/13 11:07:51;;;;;;;4.33;2.67;;;;;;;2.25;83.61;100009.09;5063718;28;20236;-85
2021/01/13 11:10:20;;;;;;;6.03;3.97;;;;;;;2.29;82.94;100010.84;5058532;28;20650;-84
2021/01/13 11:12:47;;;;;;;3.43;2.53;;;;;;;2.34;83.29;100009.16;5058585;28;20213;-86
2021/01/13 11:15:15;;;;;;;5.73;2.33;;;;;;;2.32;83.86;100009.16;5081809;28;20235;-80
2021/01/13 11:17:42;;;;;;;6.73;3.53;;;;;;;2.26;84.21;99988.50;5077832;28;20206;-81
2021/01/13 11:23:42;;;;;;;4.97;2.37;;;;;;;2.35;82.51;99978.25;5082186;28;20299;-80
2021/01/13 11:26:08;;;;;;;10.17;3.00;;;;;;;2.29;83.82;99965.34;5083989;28;20180;-84
2021/01/13 11:28:35;;;;;;;5.63;2.87;;;;;;;2.42;83.06;99965.41;5082589;28;20196;-80
2021/01/13 11:31:28;;;;;;;5.20;2.47;;;;;;;2.37;82.91;99962.81;5083221;28;20231;-83
2021/01/13 11:33:56;;;;;;;5.90;3.07;;;;;;;2.43;82.99;99959.44;5077025;28;20219;-80
2021/01/13 11:36:29;;;;;;;4.97;2.57;;;;;;;2.45;82.46;99953.41;5080597;28;20201;-82
2021/01/13 11:39:03;;;;;;;8.93;2.57;;;;;;;2.47;83.26;99950.88;5058583;28;20218;-83
2021/01/13 11:42:05;;;;;;;7.27;3.03;;;;;;;2.45;82.65;99940.53;5055426;28;20195;-83
2021/01/13 11:44:41;;;;;;;5.90;2.93;;;;;;;2.41;83.26;99938.81;5057844;28;20225;-84
2021/01/13 11:47:20;;;;;;;5.23;2.87;;;;;;;2.42;83.59;99945.69;5056113;28;20279;-79
2021/01/13 11:49:51;;;;;;;7.17;2.97;;;;;;;2.42;83.27;99935.38;5057340;28;20196;-82
2021/01/13 11:52:18;;;;;;;6.57;3.13;;;;;;;2.47;83.27;99936.25;5066125;28;20288;-79
2021/01/13 11:54:49;;;;;;;4.23;3.07;;;;;;;2.54;83.20;99924.28;5062503;28;20249;-80
2021/01/13 11:57:23;;;;;;;6.20;2.63;;;;;;;2.47;83.17;99919.94;5064582;28;20208;-79
2021/01/13 11:59:52;;;;;;;5.20;2.90;;;;;;;2.53;82.96;99912.25;5066012;28;20243;-83
2021/01/13 12:02:31;;;;;;;7.40;4.10;;;;;;;2.50;82.90;99904.53;5065761;28;20261;-84